Terminal Aerodrome Forecast
Issued by NWS Charleston, SC

Home | Current Version | Previous Version | Text Only | Print | Product List | Glossary On
Versions: 1 2 3 4 5 6 7 8 9 10 11 12 13 14 15 16 17 18
000
FTUS42 KCHS 261548 AAB
TAFSAV
TAF AMD
KSAV 261548Z 2616/2712 10007KT P6SM SHRA BKN035
      TEMPO 2616/2617 4SM TSRA BR BKN025CB
     FM270000 05004KT P6SM SCT030 BKN150
     FM270800 35003KT 6SM BR SCT005=

USA.gov is the U.S. government's official web portal to all federal, state and local government web resources and services.